sensor_id;sensor_type;location;lat;lon;timestamp;pressure;altitude;pressure_sealevel;temperature;humidity
58622;BME280;44389;51.578;5.456;2023-05-31T00:00:45;102413.44;;;9.84;100.00
58622;BME280;44389;51.578;5.456;2023-05-31T00:03:10;102420.25;;;9.83;100.00
58622;BME280;44389;51.578;5.456;2023-05-31T00:05:36;102420.25;;;9.83;100.00
58622;BME280;44389;51.578;5.456;2023-05-31T00:08:01;102416.00;;;9.84;100.00
58622;BME280;44389;51.578;5.456;2023-05-31T00:10:26;102415.81;;;9.81;100.00
58622;BME280;44389;51.578;5.456;2023-05-31T00:12:51;102419.44;;;9.84;100.00
58622;BME280;44389;51.578;5.456;2023-05-31T00:15:17;102417.50;;;9.80;100.00
58622;BME280;44389;51.578;5.456;2023-05-31T00:17:42;102419.28;;;9.81;100.00
58622;BME280;44389;51.578;5.456;2023-05-31T00:20:08;102424.25;;;9.78;100.00
58622;BME280;44389;51.578;5.456;2023-05-31T00:22:33;102423.44;;;9.79;100.00
58622;BME280;44389;51.578;5.456;2023-05-31T00:24:59;102414.56;;;9.74;100.00
58622;BME280;44389;51.578;5.456;2023-05-31T00:27:25;102418.31;;;9.79;100.00
58622;BME280;44389;51.578;5.456;2023-05-31T00:29:50;102411.81;;;9.71;100.00
58622;BME280;44389;51.578;5.456;2023-05-31T00:32:15;102418.56;;;9.69;100.00
58622;BME280;44389;51.578;5.456;2023-05-31T00:34:41;102417.47;;;9.65;100.00
58622;BME280;44389;51.578;5.456;2023-05-31T00:37:06;102412.25;;;9.64;100.00
58622;BME280;44389;51.578;5.456;2023-05-31T00:39:31;102415.81;;;9.66;100.00
58622;BME280;44389;51.578;5.456;2023-05-31T00:41:56;102415.44;;;9.60;100.00
58622;BME280;44389;51.578;5.456;2023-05-31T00:44:22;102415.25;;;9.56;100.00
58622;BME280;44389;51.578;5.456;2023-05-31T00:46:47;102411.72;;;9.54;100.00
58622;BME280;44389;51.578;5.456;2023-05-31T00:49:13;102410.72;;;9.52;100.00
58622;BME280;44389;51.578;5.456;2023-05-31T00:51:38;102416.66;;;9.51;100.00
58622;BME280;44389;51.578;5.456;2023-05-31T00:54:04;102417.28;;;9.47;100.00
58622;BME280;44389;51.578;5.456;2023-05-31T00:56:29;102429.28;;;9.47;100.00
58622;BME280;44389;51.578;5.456;2023-05-31T00:58:56;102425.81;;;9.46;100.00
58622;BME280;44389;51.578;5.456;2023-05-31T01:01:22;102422.19;;;9.43;100.00
58622;BME280;44389;51.578;5.456;2023-05-31T01:03:52;102424.56;;;9.39;100.00
58622;BME280;44389;51.578;5.456;2023-05-31T01:06:18;102421.91;;;9.38;100.00
58622;BME280;44389;51.578;5.456;2023-05-31T01:08:43;102420.03;;;9.35;100.00
58622;BME280;44389;51.578;5.456;2023-05-31T01:11:34;102422.59;;;9.35;100.00
58622;BME280;44389;51.578;5.456;2023-05-31T01:14:08;102425.72;;;9.30;100.00
58622;BME280;44389;51.578;5.456;2023-05-31T01:16:39;102421.09;;;9.39;100.00
58622;BME280;44389;51.578;5.456;2023-05-31T01:19:13;102420.34;;;9.27;100.00
58622;BME280;44389;51.578;5.456;2023-05-31T01:22:13;102425.50;;;9.27;100.00
58622;BME280;44389;51.578;5.456;2023-05-31T01:24:59;102422.38;;;9.17;100.00
58622;BME280;44389;51.578;5.456;2023-05-31T01:27:26;102426.44;;;9.14;100.00
58622;BME280;44389;51.578;5.456;2023-05-31T01:29:52;102428.13;;;9.13;100.00
58622;BME280;44389;51.578;5.456;2023-05-31T01:32:19;102430.63;;;9.12;100.00
58622;BME280;44389;51.578;5.456;2023-05-31T01:34:46;102426.34;;;9.12;100.00
58622;BME280;44389;51.578;5.456;2023-05-31T01:37:11;102423.41;;;9.06;100.00
58622;BME280;44389;51.578;5.456;2023-05-31T01:39:36;102426.75;;;9.05;100.00
58622;BME280;44389;51.578;5.456;2023-05-31T01:42:02;102425.00;;;9.04;100.00
58622;BME280;44389;51.578;5.456;2023-05-31T01:44:28;102424.00;;;9.02;100.00
58622;BME280;44389;51.578;5.456;2023-05-31T01:46:55;102416.91;;;8.98;100.00
58622;BME280;44389;51.578;5.456;2023-05-31T01:49:20;102407.13;;;8.92;100.00
58622;BME280;44389;51.578;5.456;2023-05-31T01:51:47;102412.56;;;8.97;100.00
58622;BME280;44389;51.578;5.456;2023-05-31T01:54:13;102408.03;;;8.93;100.00
58622;BME280;44389;51.578;5.456;2023-05-31T01:56:39;102414.03;;;8.93;100.00
58622;BME280;44389;51.578;5.456;2023-05-31T01:59:06;102404.47;;;8.90;100.00
58622;BME280;44389;51.578;5.456;2023-05-31T02:01:32;102397.75;;;8.93;100.00
58622;BME280;44389;51.578;5.456;2023-05-31T02:03:57;102404.47;;;8.90;100.00
58622;BME280;44389;51.578;5.456;2023-05-31T02:06:23;102402.69;;;8.89;100.00
58622;BME280;44389;51.578;5.456;2023-05-31T02:08:52;102400.31;;;8.93;100.00
58622;BME280;44389;51.578;5.456;2023-05-31T02:11:17;102397.75;;;8.93;100.00
58622;BME280;44389;51.578;5.456;2023-05-31T02:13:42;102401.09;;;8.92;100.00
58622;BME280;44389;51.578;5.456;2023-05-31T02:16:08;102394.00;;;8.87;100.00
58622;BME280;44389;51.578;5.456;2023-05-31T02:18:33;102399.13;;;8.87;100.00
58622;BME280;44389;51.578;5.456;2023-05-31T02:21:00;102400.53;;;8.82;100.00
58622;BME280;44389;51.578;5.456;2023-05-31T02:23:26;102398.16;;;8.85;100.00
58622;BME280;44389;51.578;5.456;2023-05-31T02:25:51;102402.31;;;8.83;100.00
58622;BME280;44389;51.578;5.456;2023-05-31T02:28:17;102402.31;;;8.83;100.00
58622;BME280;44389;51.578;5.456;2023-05-31T02:30:59;102397.97;;;8.82;100.00
58622;BME280;44389;51.578;5.456;2023-05-31T02:33:25;102398.06;;;8.84;100.00
58622;BME280;44389;51.578;5.456;2023-05-31T02:35:52;102398.94;;;8.84;100.00
58622;BME280;44389;51.578;5.456;2023-05-31T02:38:19;102398.06;;;8.84;100.00
58622;BME280;44389;51.578;5.456;2023-05-31T02:40:44;102392.91;;;8.84;100.00
58622;BME280;44389;51.578;5.456;2023-05-31T02:43:10;102391.22;;;8.84;100.00
58622;BME280;44389;51.578;5.456;2023-05-31T02:45:35;102393.09;;;8.87;100.00
58622;BME280;44389;51.578;5.456;2023-05-31T02:48:00;102392.03;;;8.83;100.00
58622;BME280;44389;51.578;5.456;2023-05-31T02:50:30;102405.84;;;8.85;100.00
58622;BME280;44389;51.578;5.456;2023-05-31T02:52:55;102397.19;;;8.83;100.00
58622;BME280;44389;51.578;5.456;2023-05-31T02:55:21;102397.19;;;8.83;100.00
58622;BME280;44389;51.578;5.456;2023-05-31T02:57:46;102398.75;;;8.81;100.00
58622;BME280;44389;51.578;5.456;2023-05-31T03:00:12;102398.84;;;8.83;100.00
58622;BME280;44389;51.578;5.456;2023-05-31T03:02:40;102403.72;;;8.78;100.00
58622;BME280;44389;51.578;5.456;2023-05-31T03:05:06;102400.38;;;8.79;100.00
58622;BME280;44389;51.578;5.456;2023-05-31T03:07:34;102390.78;;;8.77;100.00
58622;BME280;44389;51.578;5.456;2023-05-31T03:09:59;102395.72;;;8.73;100.00
58622;BME280;44389;51.578;5.456;2023-05-31T03:12:25;102396.63;;;8.74;100.00
58622;BME280;44389;51.578;5.456;2023-05-31T03:14:50;102402.47;;;8.71;100.00
58622;BME280;44389;51.578;5.456;2023-05-31T03:17:15;102403.84;;;8.66;100.00
58622;BME280;44389;51.578;5.456;2023-05-31T03:19:41;102404.56;;;8.64;100.00
58622;BME280;44389;51.578;5.456;2023-05-31T03:22:06;102402.94;;;8.66;100.00
58622;BME280;44389;51.578;5.456;2023-05-31T03:24:31;102403.84;;;8.66;100.00
58622;BME280;44389;51.578;5.456;2023-05-31T03:26:56;102402.16;;;8.67;100.00
58622;BME280;44389;51.578;5.456;2023-05-31T03:29:22;102399.50;;;8.65;100.00
58622;BME280;44389;51.578;5.456;2023-05-31T03:31:47;102398.00;;;8.69;100.00
58622;BME280;44389;51.578;5.456;2023-05-31T03:34:12;102397.09;;;8.68;100.00
58622;BME280;44389;51.578;5.456;2023-05-31T03:36:38;102393.84;;;8.71;100.00
58622;BME280;44389;51.578;5.456;2023-05-31T03:39:03;102392.06;;;8.70;100.00
58622;BME280;44389;51.578;5.456;2023-05-31T03:41:29;102383.47;;;8.69;100.00
58622;BME280;44389;51.578;5.456;2023-05-31T03:43:54;102398.19;;;8.72;100.00
58622;BME280;44389;51.578;5.456;2023-05-31T03:46:20;102390.47;;;8.72;100.00
58622;BME280;44389;51.578;5.456;2023-05-31T03:48:45;102386.13;;;8.71;100.00
58622;BME280;44389;51.578;5.456;2023-05-31T03:51:10;102385.94;;;8.68;100.00
58622;BME280;44389;51.578;5.456;2023-05-31T03:53:35;102387.53;;;8.66;100.00
58622;BME280;44389;51.578;5.456;2023-05-31T03:56:01;102390.41;;;8.70;100.00
58622;BME280;44389;51.578;5.456;2023-05-31T03:58:26;102391.28;;;8.71;100.00
58622;BME280;44389;51.578;5.456;2023-05-31T04:00:51;102393.75;;;8.69;100.00
58622;BME280;44389;51.578;5.456;2023-05-31T04:03:17;102392.19;;;8.71;100.00
58622;BME280;44389;51.578;5.456;2023-05-31T04:05:43;102392.19;;;8.71;100.00
58622;BME280;44389;51.578;5.456;2023-05-31T04:08:08;102390.66;;;8.75;100.00
58622;BME280;44389;51.578;5.456;2023-05-31T04:10:33;102396.81;;;8.77;100.00
58622;BME280;44389;51.578;5.456;2023-05-31T04:12:59;102400.38;;;8.79;100.00
58622;BME280;44389;51.578;5.456;2023-05-31T04:15:25;102396.19;;;8.81;100.00
58622;BME280;44389;51.578;5.456;2023-05-31T04:17:51;102388.66;;;8.84;100.00
58622;BME280;44389;51.578;5.456;2023-05-31T04:20:16;102387.06;;;8.86;100.00
58622;BME280;44389;51.578;5.456;2023-05-31T04:22:42;102386.53;;;8.92;100.00
58622;BME280;44389;51.578;5.456;2023-05-31T04:25:07;102387.63;;;8.96;100.00
58622;BME280;44389;51.578;5.456;2023-05-31T04:27:35;102392.06;;;8.98;100.00
58622;BME280;44389;51.578;5.456;2023-05-31T04:30:04;102393.16;;;9.02;100.00
58622;BME280;44389;51.578;5.456;2023-05-31T04:32:30;102395.09;;;9.06;100.00
58622;BME280;44389;51.578;5.456;2023-05-31T04:35:02;102394.63;;;9.12;100.00
58622;BME280;44389;51.578;5.456;2023-05-31T04:37:31;102394.88;;;9.16;100.00
58622;BME280;44389;51.578;5.456;2023-05-31T04:39:57;102394.25;;;9.20;100.00
58622;BME280;44389;51.578;5.456;2023-05-31T04:42:24;102398.00;;;9.26;100.00
58622;BME280;44389;51.578;5.456;2023-05-31T04:44:53;102396.78;;;9.34;100.00
58622;BME280;44389;51.578;5.456;2023-05-31T04:47:30;102398.66;;;9.36;100.00
58622;BME280;44389;51.578;5.456;2023-05-31T04:49:56;102395.53;;;9.42;100.00
58622;BME280;44389;51.578;5.456;2023-05-31T04:52:29;102396.06;;;9.51;100.00
58622;BME280;44389;51.578;5.456;2023-05-31T04:54:57;102394.66;;;9.56;100.00
58622;BME280;44389;51.578;5.456;2023-05-31T04:57:23;102401.97;;;9.64;100.00
58622;BME280;44389;51.578;5.456;2023-05-31T04:59:49;102402.50;;;9.73;100.00
58622;BME280;44389;51.578;5.456;2023-05-31T05:02:14;102408.00;;;9.79;100.00
58622;BME280;44389;51.578;5.456;2023-05-31T05:04:40;102400.56;;;9.84;100.00
58622;BME280;44389;51.578;5.456;2023-05-31T05:07:05;102404.38;;;9.91;100.00
58622;BME280;44389;51.578;5.456;2023-05-31T05:09:31;102404.34;;;10.05;100.00
58622;BME280;44389;51.578;5.456;2023-05-31T05:11:57;102397.75;;;10.11;100.00
58622;BME280;44389;51.578;5.456;2023-05-31T05:14:22;102400.53;;;10.14;100.00
58622;BME280;44389;51.578;5.456;2023-05-31T05:16:47;102393.47;;;10.26;100.00
58622;BME280;44389;51.578;5.456;2023-05-31T05:19:12;102400.81;;;10.35;100.00
58622;BME280;44389;51.578;5.456;2023-05-31T05:21:38;102402.97;;;10.42;100.00
58622;BME280;44389;51.578;5.456;2023-05-31T05:24:03;102399.03;;;10.49;100.00
58622;BME280;44389;51.578;5.456;2023-05-31T05:26:29;102393.50;;;10.58;100.00
58622;BME280;44389;51.578;5.456;2023-05-31T05:28:54;102405.75;;;10.62;100.00
58622;BME280;44389;51.578;5.456;2023-05-31T05:31:19;102410.13;;;10.63;100.00
58622;BME280;44389;51.578;5.456;2023-05-31T05:33:45;102410.41;;;10.69;100.00
58622;BME280;44389;51.578;5.456;2023-05-31T05:36:10;102403.38;;;10.81;100.00
58622;BME280;44389;51.578;5.456;2023-05-31T05:38:35;102413.53;;;10.95;100.00
58622;BME280;44389;51.578;5.456;2023-05-31T05:41:00;102407.56;;;10.96;100.00
58622;BME280;44389;51.578;5.456;2023-05-31T05:43:26;102414.66;;;11.00;100.00
58622;BME280;44389;51.578;5.456;2023-05-31T05:45:53;102422.06;;;11.10;100.00
58622;BME280;44389;51.578;5.456;2023-05-31T05:48:19;102419.50;;;11.27;100.00
58622;BME280;44389;51.578;5.456;2023-05-31T05:50:44;102421.75;;;11.37;100.00
58622;BME280;44389;51.578;5.456;2023-05-31T05:53:10;102411.41;;;11.53;100.00
58622;BME280;44389;51.578;5.456;2023-05-31T05:55:36;102410.97;;;11.62;100.00
58622;BME280;44389;51.578;5.456;2023-05-31T05:58:02;102409.09;;;11.76;100.00
58622;BME280;44389;51.578;5.456;2023-05-31T06:00:27;102403.41;;;11.83;100.00
58622;BME280;44389;51.578;5.456;2023-05-31T06:02:53;102405.31;;;11.88;100.00
58622;BME280;44389;51.578;5.456;2023-05-31T06:05:18;102411.94;;;11.99;100.00
58622;BME280;44389;51.578;5.456;2023-05-31T06:07:51;102421.34;;;12.15;100.00
58622;BME280;44389;51.578;5.456;2023-05-31T06:10:16;102413.97;;;12.23;100.00
58622;BME280;44389;51.578;5.456;2023-05-31T06:12:41;102420.06;;;12.25;100.00
58622;BME280;44389;51.578;5.456;2023-05-31T06:15:07;102414.03;;;12.42;100.00
58622;BME280;44389;51.578;5.456;2023-05-31T06:17:32;102417.47;;;12.61;100.00
58622;BME280;44389;51.578;5.456;2023-05-31T06:19:58;102417.69;;;12.65;100.00
58622;BME280;44389;51.578;5.456;2023-05-31T06:22:23;102415.97;;;12.66;100.00
58622;BME280;44389;51.578;5.456;2023-05-31T06:24:48;102419.78;;;12.74;100.00
58622;BME280;44389;51.578;5.456;2023-05-31T06:27:14;102424.72;;;12.88;100.00
58622;BME280;44389;51.578;5.456;2023-05-31T06:29:39;102424.91;;;12.92;100.00
58622;BME280;44389;51.578;5.456;2023-05-31T06:32:05;102421.16;;;13.05;100.00
58622;BME280;44389;51.578;5.456;2023-05-31T06:34:30;102428.97;;;13.25;100.00
58622;BME280;44389;51.578;5.456;2023-05-31T06:36:56;102430.13;;;13.31;100.00
58622;BME280;44389;51.578;5.456;2023-05-31T06:39:21;102427.06;;;13.40;100.00
58622;BME280;44389;51.578;5.456;2023-05-31T06:41:46;102420.63;;;13.32;100.00
58622;BME280;44389;51.578;5.456;2023-05-31T06:44:12;102420.13;;;13.39;100.00
58622;BME280;44389;51.578;5.456;2023-05-31T06:46:37;102420.97;;;13.59;100.00
58622;BME280;44389;51.578;5.456;2023-05-31T06:49:02;102425.16;;;13.56;100.00
58622;BME280;44389;51.578;5.456;2023-05-31T06:51:28;102431.91;;;13.73;100.00
58622;BME280;44389;51.578;5.456;2023-05-31T06:53:53;102428.56;;;13.76;100.00
58622;BME280;44389;51.578;5.456;2023-05-31T06:56:18;102428.63;;;13.77;100.00
58622;BME280;44389;51.578;5.456;2023-05-31T06:58:45;102425.03;;;13.95;100.00
58622;BME280;44389;51.578;5.456;2023-05-31T07:01:11;102426.09;;;14.00;100.00
58622;BME280;44389;51.578;5.456;2023-05-31T07:03:37;102421.47;;;14.14;100.00
58622;BME280;44389;51.578;5.456;2023-05-31T07:06:02;102429.03;;;14.30;100.00
58622;BME280;44389;51.578;5.456;2023-05-31T07:08:27;102428.66;;;14.42;100.00
58622;BME280;44389;51.578;5.456;2023-05-31T07:10:53;102425.44;;;14.49;97.58
58622;BME280;44389;51.578;5.456;2023-05-31T07:13:19;102431.53;;;14.50;96.34
58622;BME280;44389;51.578;5.456;2023-05-31T07:15:44;102426.75;;;14.61;97.83
58622;BME280;44389;51.578;5.456;2023-05-31T07:18:10;102420.47;;;14.77;98.66
58622;BME280;44389;51.578;5.456;2023-05-31T07:20:35;102423.00;;;14.75;95.73
58622;BME280;44389;51.578;5.456;2023-05-31T07:23:00;102419.00;;;14.84;95.46
58622;BME280;44389;51.578;5.456;2023-05-31T07:25:25;102426.34;;;14.95;96.27
58622;BME280;44389;51.578;5.456;2023-05-31T07:27:51;102418.84;;;15.03;95.18
58622;BME280;44389;51.578;5.456;2023-05-31T07:30:16;102417.31;;;15.08;94.50
58622;BME280;44389;51.578;5.456;2023-05-31T07:32:42;102407.97;;;15.13;92.29
58622;BME280;44389;51.578;5.456;2023-05-31T07:35:07;102414.31;;;15.22;91.31
58622;BME280;44389;51.578;5.456;2023-05-31T07:37:32;102406.00;;;15.32;90.58
58622;BME280;44389;51.578;5.456;2023-05-31T07:39:58;102403.84;;;15.44;90.90
58622;BME280;44389;51.578;5.456;2023-05-31T07:42:24;102396.34;;;15.54;90.41
58622;BME280;44389;51.578;5.456;2023-05-31T07:44:50;102400.16;;;15.63;90.00
58622;BME280;44389;51.578;5.456;2023-05-31T07:47:16;102408.59;;;15.82;91.24
58622;BME280;44389;51.578;5.456;2023-05-31T07:49:41;102407.22;;;15.93;90.12
58622;BME280;44389;51.578;5.456;2023-05-31T07:52:07;102406.75;;;16.05;87.93
58622;BME280;44389;51.578;5.456;2023-05-31T07:54:32;102396.63;;;16.15;88.31
58622;BME280;44389;51.578;5.456;2023-05-31T07:56:57;102397.25;;;16.07;84.91
58622;BME280;44389;51.578;5.456;2023-05-31T07:59:23;102395.75;;;16.43;88.42
58622;BME280;44389;51.578;5.456;2023-05-31T08:01:49;102393.75;;;16.63;87.55
58622;BME280;44389;51.578;5.456;2023-05-31T08:04:14;102392.41;;;16.76;86.29
58622;BME280;44389;51.578;5.456;2023-05-31T08:06:40;102390.38;;;16.96;86.85
58622;BME280;44389;51.578;5.456;2023-05-31T08:09:07;102390.38;;;16.96;84.00
58622;BME280;44389;51.578;5.456;2023-05-31T08:11:33;102393.56;;;17.18;84.99
58622;BME280;44389;51.578;5.456;2023-05-31T08:14:01;102388.16;;;17.10;81.92
58622;BME280;44389;51.578;5.456;2023-05-31T08:16:27;102384.22;;;17.26;81.25
58622;BME280;44389;51.578;5.456;2023-05-31T08:18:52;102382.81;;;17.39;81.50
58622;BME280;44389;51.578;5.456;2023-05-31T08:21:17;102378.78;;;17.50;81.10
58622;BME280;44389;51.578;5.456;2023-05-31T08:23:43;102383.63;;;17.71;81.52
58622;BME280;44389;51.578;5.456;2023-05-31T08:26:08;102382.25;;;17.86;78.40
58622;BME280;44389;51.578;5.456;2023-05-31T08:28:34;102386.91;;;17.98;78.94
58622;BME280;44389;51.578;5.456;2023-05-31T08:30:59;102387.59;;;17.92;74.44
58622;BME280;44389;51.578;5.456;2023-05-31T08:33:27;102381.25;;;18.16;79.22
58622;BME280;44389;51.578;5.456;2023-05-31T08:35:54;102377.06;;;18.24;75.29
58622;BME280;44389;51.578;5.456;2023-05-31T08:38:27;102378.94;;;18.30;73.48
58622;BME280;44389;51.578;5.456;2023-05-31T08:40:52;102375.63;;;18.38;74.31
58622;BME280;44389;51.578;5.456;2023-05-31T08:43:19;102377.53;;;18.46;71.09
58622;BME280;44389;51.578;5.456;2023-05-31T08:45:49;102378.72;;;18.60;72.14
58622;BME280;44389;51.578;5.456;2023-05-31T08:48:21;102378.97;;;18.72;70.76
58622;BME280;44389;51.578;5.456;2023-05-31T08:50:50;102386.28;;;18.89;71.77
58622;BME280;44389;51.578;5.456;2023-05-31T08:53:17;102378.72;;;19.03;70.72
58622;BME280;44389;51.578;5.456;2023-05-31T08:55:44;102377.16;;;19.13;71.40
58622;BME280;44389;51.578;5.456;2023-05-31T08:58:11;102376.53;;;19.26;76.25
58622;BME280;44389;51.578;5.456;2023-05-31T09:00:37;102371.66;;;19.46;70.17
58622;BME280;44389;51.578;5.456;2023-05-31T09:03:05;102372.75;;;19.61;67.33
58622;BME280;44389;51.578;5.456;2023-05-31T09:05:31;102365.91;;;19.69;65.50
58622;BME280;44389;51.578;5.456;2023-05-31T09:07:59;102368.78;;;19.83;64.80
58622;BME280;44389;51.578;5.456;2023-05-31T09:10:24;102366.38;;;19.97;66.03
58622;BME280;44389;51.578;5.456;2023-05-31T09:12:50;102364.94;;;20.17;64.43
58622;BME280;44389;51.578;5.456;2023-05-31T09:15:15;102365.88;;;20.22;62.97
58622;BME280;44389;51.578;5.456;2023-05-31T09:17:44;102366.91;;;20.34;62.67
58622;BME280;44389;51.578;5.456;2023-05-31T09:20:11;102366.25;;;20.50;61.65
58622;BME280;44389;51.578;5.456;2023-05-31T09:22:37;102358.44;;;20.56;57.58
58622;BME280;44389;51.578;5.456;2023-05-31T09:25:02;102364.06;;;20.87;63.01
58622;BME280;44389;51.578;5.456;2023-05-31T09:27:35;102359.72;;;20.88;59.15
58622;BME280;44389;51.578;5.456;2023-05-31T09:30:04;102349.47;;;21.13;62.17
58622;BME280;44389;51.578;5.456;2023-05-31T09:32:30;102348.56;;;21.11;58.49
58622;BME280;44389;51.578;5.456;2023-05-31T09:35:09;102342.59;;;21.24;60.35
58622;BME280;44389;51.578;5.456;2023-05-31T09:37:42;102354.03;;;21.35;56.24
58622;BME280;44389;51.578;5.456;2023-05-31T09:40:08;102340.97;;;21.38;53.95
58622;BME280;44389;51.578;5.456;2023-05-31T09:42:34;102345.59;;;21.64;55.15
58622;BME280;44389;51.578;5.456;2023-05-31T09:44:59;102334.31;;;21.79;55.57
58622;BME280;44389;51.578;5.456;2023-05-31T09:47:25;102326.59;;;22.07;55.85
58622;BME280;44389;51.578;5.456;2023-05-31T09:49:54;102335.53;;;22.37;56.37
58622;BME280;44389;51.578;5.456;2023-05-31T09:52:26;102325.03;;;22.46;52.72
58622;BME280;44389;51.578;5.456;2023-05-31T09:54:54;102335.66;;;22.73;52.70
58622;BME280;44389;51.578;5.456;2023-05-31T09:57:34;102341.81;;;22.99;52.70
58622;BME280;44389;51.578;5.456;2023-05-31T10:00:09;102328.69;;;23.12;47.89
58622;BME280;44389;51.578;5.456;2023-05-31T10:02:45;102338.38;;;23.22;48.94
58622;BME280;44389;51.578;5.456;2023-05-31T10:05:12;102330.44;;;23.08;46.25
58622;BME280;44389;51.578;5.456;2023-05-31T10:07:44;102322.56;;;23.75;47.58
58622;BME280;44389;51.578;5.456;2023-05-31T10:10:10;102323.28;;;24.34;46.21
58622;BME280;44389;51.578;5.456;2023-05-31T10:12:47;102330.06;;;24.81;45.48
58622;BME280;44389;51.578;5.456;2023-05-31T10:15:15;102324.75;;;24.92;48.59
58622;BME280;44389;51.578;5.456;2023-05-31T10:17:48;102326.84;;;25.60;41.75
58622;BME280;44389;51.578;5.456;2023-05-31T10:20:16;102319.47;;;26.62;38.48
58622;BME280;44389;51.578;5.456;2023-05-31T10:22:43;102328.28;;;27.23;37.86
58622;BME280;44389;51.578;5.456;2023-05-31T10:25:10;102320.25;;;27.78;40.32
58622;BME280;44389;51.578;5.456;2023-05-31T10:27:38;102315.94;;;28.58;33.86
58622;BME280;44389;51.578;5.456;2023-05-31T10:30:04;102319.50;;;28.97;33.52
58622;BME280;44389;51.578;5.456;2023-05-31T10:32:36;102313.75;;;29.50;32.08
58622;BME280;44389;51.578;5.456;2023-05-31T10:35:06;102303.53;;;29.34;31.86
58622;BME280;44389;51.578;5.456;2023-05-31T10:37:31;102297.00;;;30.11;30.56
58622;BME280;44389;51.578;5.456;2023-05-31T10:40:17;102294.84;;;30.24;31.07
58622;BME280;44389;51.578;5.456;2023-05-31T10:42:56;102295.75;;;30.24;28.72
58622;BME280;44389;51.578;5.456;2023-05-31T10:45:38;102299.72;;;30.67;30.24
58622;BME280;44389;51.578;5.456;2023-05-31T10:48:19;102294.09;;;30.77;30.08
58622;BME280;44389;51.578;5.456;2023-05-31T10:50:55;102299.34;;;30.80;29.44
58622;BME280;44389;51.578;5.456;2023-05-31T10:53:20;102293.50;;;30.68;28.15
58622;BME280;44389;51.578;5.456;2023-05-31T10:55:47;102291.91;;;31.16;25.97
58622;BME280;44389;51.578;5.456;2023-05-31T10:58:26;102286.66;;;31.89;27.38
58622;BME280;44389;51.578;5.456;2023-05-31T11:00:53;102286.00;;;31.33;25.31
58622;BME280;44389;51.578;5.456;2023-05-31T11:03:24;102280.63;;;31.84;25.47
58622;BME280;44389;51.578;5.456;2023-05-31T11:06:00;102287.22;;;31.75;26.61
58622;BME280;44389;51.578;5.456;2023-05-31T11:08:29;102282.22;;;32.37;28.99
58622;BME280;44389;51.578;5.456;2023-05-31T11:19:20;102273.69;;;32.94;23.68
58622;BME280;44389;51.578;5.456;2023-05-31T11:21:49;102276.63;;;32.88;24.22
58622;BME280;44389;51.578;5.456;2023-05-31T11:24:28;102269.69;;;32.83;25.91
58622;BME280;44389;51.578;5.456;2023-05-31T11:26:56;102267.91;;;31.68;24.96
58622;BME280;44389;51.578;5.456;2023-05-31T11:29:22;102263.25;;;31.25;24.68
58622;BME280;44389;51.578;5.456;2023-05-31T11:34:29;102271.44;;;31.93;26.13
58622;BME280;44389;51.578;5.456;2023-05-31T11:37:02;102260.53;;;32.23;24.11
58622;BME280;44389;51.578;5.456;2023-05-31T11:39:28;102257.84;;;32.23;24.33
58622;BME280;44389;51.578;5.456;2023-05-31T11:41:54;102262.88;;;32.97;23.92
58622;BME280;44389;51.578;5.456;2023-05-31T11:44:27;102265.88;;;32.67;24.22
58622;BME280;44389;51.578;5.456;2023-05-31T11:47:00;102260.63;;;32.64;24.16
58622;BME280;44389;51.578;5.456;2023-05-31T11:49:27;102260.34;;;32.49;23.69
58622;BME280;44389;51.578;5.456;2023-05-31T11:51:54;102254.66;;;32.13;24.14
58622;BME280;44389;51.578;5.456;2023-05-31T11:54:27;102262.03;;;32.52;24.07
58622;BME280;44389;51.578;5.456;2023-05-31T11:56:59;102250.91;;;32.18;24.82
58622;BME280;44389;51.578;5.456;2023-05-31T11:59:25;102247.25;;;32.88;24.23
58622;BME280;44389;51.578;5.456;2023-05-31T12:01:56;102243.59;;;32.68;24.32
58622;BME280;44389;51.578;5.456;2023-05-31T12:04:27;102237.06;;;33.58;23.85
58622;BME280;44389;51.578;5.456;2023-05-31T12:06:53;102236.00;;;33.21;24.14
58622;BME280;44389;51.578;5.456;2023-05-31T12:09:18;102238.06;;;34.12;23.17
58622;BME280;44389;51.578;5.456;2023-05-31T12:11:47;102234.59;;;33.72;23.64
58622;BME280;44389;51.578;5.456;2023-05-31T12:14:12;102238.41;;;33.06;23.23
58622;BME280;44389;51.578;5.456;2023-05-31T12:16:39;102222.31;;;32.87;23.77
58622;BME280;44389;51.578;5.456;2023-05-31T12:19:11;102218.94;;;32.83;24.68
58622;BME280;44389;51.578;5.456;2023-05-31T12:21:36;102215.66;;;32.55;24.82
58622;BME280;44389;51.578;5.456;2023-05-31T12:24:10;102225.34;;;32.35;24.50
58622;BME280;44389;51.578;5.456;2023-05-31T12:26:36;102207.84;;;32.93;22.98
58622;BME280;44389;51.578;5.456;2023-05-31T12:29:02;102197.81;;;33.39;23.78
58622;BME280;44389;51.578;5.456;2023-05-31T12:31:27;102201.84;;;33.48;24.19
58622;BME280;44389;51.578;5.456;2023-05-31T12:39:14;102204.06;;;33.78;22.58
58622;BME280;44389;51.578;5.456;2023-05-31T12:41:47;102196.97;;;33.77;22.31
58622;BME280;44389;51.578;5.456;2023-05-31T12:44:14;102189.31;;;33.69;22.13
58622;BME280;44389;51.578;5.456;2023-05-31T12:46:42;102190.22;;;33.09;23.57
58622;BME280;44389;51.578;5.456;2023-05-31T12:49:21;102192.63;;;33.74;23.05
58622;BME280;44389;51.578;5.456;2023-05-31T12:52:05;102184.81;;;34.44;23.65
58622;BME280;44389;51.578;5.456;2023-05-31T12:54:32;102187.47;;;33.51;22.26
58622;BME280;44389;51.578;5.456;2023-05-31T12:57:00;102184.38;;;33.41;23.28
58622;BME280;44389;51.578;5.456;2023-05-31T12:59:29;102181.53;;;33.25;23.21
58622;BME280;44389;51.578;5.456;2023-05-31T13:01:55;102175.91;;;33.10;24.03
58622;BME280;44389;51.578;5.456;2023-05-31T13:04:21;102169.63;;;33.32;23.18